sensor_id;sensor_type;location;lat;lon;timestamp;pressure;altitude;pressure_sealevel;temperature;humidity
4410;BME280;2218;51.408;7.208;2023-04-02T00:00:17;98980.50;;;18.75;48.74
4410;BME280;2218;51.408;7.208;2023-04-02T00:02:54;98979.63;;;18.74;48.81
4410;BME280;2218;51.408;7.208;2023-04-02T00:05:30;98985.88;;;18.73;49.01
4410;BME280;2218;51.408;7.208;2023-04-02T00:08:01;98998.06;;;18.74;48.82
4410;BME280;2218;51.408;7.208;2023-04-02T00:10:33;98992.09;;;18.72;48.79
4410;BME280;2218;51.408;7.208;2023-04-02T00:13:05;99000.00;;;18.72;48.90
4410;BME280;2218;51.408;7.208;2023-04-02T00:15:33;99003.59;;;18.71;48.90
4410;BME280;2218;51.408;7.208;2023-04-02T00:18:03;99010.75;;;18.69;48.89
4410;BME280;2218;51.408;7.208;2023-04-02T00:20:36;99010.75;;;18.69;48.94
4410;BME280;2218;51.408;7.208;2023-04-02T00:23:10;99024.88;;;18.68;48.70
4410;BME280;2218;51.408;7.208;2023-04-02T00:25:40;99027.50;;;18.68;48.83
4410;BME280;2218;51.408;7.208;2023-04-02T00:28:12;99023.16;;;18.67;48.69
4410;BME280;2218;51.408;7.208;2023-04-02T00:30:47;99028.44;;;18.67;48.82
4410;BME280;2218;51.408;7.208;2023-04-02T00:33:20;99044.22;;;18.67;48.90
4410;BME280;2218;51.408;7.208;2023-04-02T00:35:51;99050.53;;;18.65;48.80
4410;BME280;2218;51.408;7.208;2023-04-02T00:38:24;99050.53;;;18.65;48.57
4410;BME280;2218;51.408;7.208;2023-04-02T00:40:56;99062.88;;;18.64;48.82
4410;BME280;2218;51.408;7.208;2023-04-02T00:43:27;99070.88;;;18.63;48.53
4410;BME280;2218;51.408;7.208;2023-04-02T00:45:59;99067.41;;;18.62;48.96
4410;BME280;2218;51.408;7.208;2023-04-02T00:48:40;99082.38;;;18.62;48.67
4410;BME280;2218;51.408;7.208;2023-04-02T00:51:16;99082.38;;;18.62;48.44
4410;BME280;2218;51.408;7.208;2023-04-02T00:53:47;99093.03;;;18.60;48.36
4410;BME280;2218;51.408;7.208;2023-04-02T00:56:23;99095.66;;;18.60;48.69
4410;BME280;2218;51.408;7.208;2023-04-02T00:58:54;99102.81;;;18.58;48.45
4410;BME280;2218;51.408;7.208;2023-04-02T01:01:26;99108.91;;;18.58;48.63
4410;BME280;2218;51.408;7.208;2023-04-02T01:03:56;99110.72;;;18.58;48.62
4410;BME280;2218;51.408;7.208;2023-04-02T01:06:30;99114.19;;;18.58;48.59
4410;BME280;2218;51.408;7.208;2023-04-02T01:09:27;99116.72;;;18.60;48.43
4410;BME280;2218;51.408;7.208;2023-04-02T01:12:21;99119.22;;;18.62;48.41
4410;BME280;2218;51.408;7.208;2023-04-02T01:15:02;99121.84;;;18.62;48.67
4410;BME280;2218;51.408;7.208;2023-04-02T01:17:58;99127.00;;;18.63;48.51
4410;BME280;2218;51.408;7.208;2023-04-02T01:21:05;99135.63;;;18.65;48.43
4410;BME280;2218;51.408;7.208;2023-04-02T01:23:47;99143.41;;;18.67;48.27
4410;BME280;2218;51.408;7.208;2023-04-02T01:26:34;99139.81;;;18.68;48.27
4410;BME280;2218;51.408;7.208;2023-04-02T01:29:11;99151.19;;;18.68;48.52
4410;BME280;2218;51.408;7.208;2023-04-02T01:31:40;99147.59;;;18.69;48.46
4410;BME280;2218;51.408;7.208;2023-04-02T01:34:12;99158.13;;;18.69;48.34
4410;BME280;2218;51.408;7.208;2023-04-02T01:36:53;99159.84;;;18.70;48.43
4410;BME280;2218;51.408;7.208;2023-04-02T01:39:40;99164.25;;;18.70;48.19
4410;BME280;2218;51.408;7.208;2023-04-02T01:42:17;99173.84;;;18.71;48.48
4410;BME280;2218;51.408;7.208;2023-04-02T01:44:50;99179.09;;;18.71;48.34
4410;BME280;2218;51.408;7.208;2023-04-02T01:47:22;99195.72;;;18.71;48.35
4410;BME280;2218;51.408;7.208;2023-04-02T01:52:54;99206.97;;;18.73;48.02
4410;BME280;2218;51.408;7.208;2023-04-02T01:55:30;99208.75;;;18.73;48.01
4410;BME280;2218;51.408;7.208;2023-04-02T01:57:59;99216.66;;;18.73;47.95
4410;BME280;2218;51.408;7.208;2023-04-02T02:00:30;99216.66;;;18.73;48.27
4410;BME280;2218;51.408;7.208;2023-04-02T02:03:00;99217.50;;;18.73;48.14
4410;BME280;2218;51.408;7.208;2023-04-02T02:05:28;99228.03;;;18.73;47.99
4410;BME280;2218;51.408;7.208;2023-04-02T02:07:57;99224.44;;;18.74;47.81
4410;BME280;2218;51.408;7.208;2023-04-02T02:10:33;99234.97;;;18.74;48.02
4410;BME280;2218;51.408;7.208;2023-04-02T02:13:01;99235.91;;;18.73;47.91
4410;BME280;2218;51.408;7.208;2023-04-02T02:15:32;99246.34;;;18.75;47.79
4410;BME280;2218;51.408;7.208;2023-04-02T02:18:03;99244.56;;;18.75;47.84
4410;BME280;2218;51.408;7.208;2023-04-02T02:20:33;99245.50;;;18.74;48.05
4410;BME280;2218;51.408;7.208;2023-04-02T02:23:01;99248.88;;;18.76;47.86
4410;BME280;2218;51.408;7.208;2023-04-02T02:25:33;99250.66;;;18.76;47.57
4410;BME280;2218;51.408;7.208;2023-04-02T02:28:05;99257.72;;;18.75;47.72
4410;BME280;2218;51.408;7.208;2023-04-02T02:30:38;99269.91;;;18.76;47.95
4410;BME280;2218;51.408;7.208;2023-04-02T02:33:16;99269.91;;;18.76;47.59
4410;BME280;2218;51.408;7.208;2023-04-02T02:35:53;99269.09;;;18.76;47.54
4410;BME280;2218;51.408;7.208;2023-04-02T02:38:46;99269.91;;;18.76;47.76
4410;BME280;2218;51.408;7.208;2023-04-02T02:41:40;99281.28;;;18.77;47.68
4410;BME280;2218;51.408;7.208;2023-04-02T02:44:17;99291.81;;;18.77;47.57
4410;BME280;2218;51.408;7.208;2023-04-02T02:46:51;99291.81;;;18.77;47.68
4410;BME280;2218;51.408;7.208;2023-04-02T02:49:25;99297.09;;;18.77;47.66
4410;BME280;2218;51.408;7.208;2023-04-02T02:52:04;99298.03;;;18.76;47.50
4410;BME280;2218;51.408;7.208;2023-04-02T02:54:48;99304.97;;;18.77;47.64
4410;BME280;2218;51.408;7.208;2023-04-02T02:57:22;99309.41;;;18.76;47.72
4410;BME280;2218;51.408;7.208;2023-04-02T02:59:53;99317.31;;;18.76;47.48
4410;BME280;2218;51.408;7.208;2023-04-02T03:02:23;99324.25;;;18.77;47.66
4410;BME280;2218;51.408;7.208;2023-04-02T03:04:54;99327.84;;;18.76;47.08
4410;BME280;2218;51.408;7.208;2023-04-02T03:07:27;99340.03;;;18.77;47.58
4410;BME280;2218;51.408;7.208;2023-04-02T03:10:05;99340.03;;;18.77;47.26
4410;BME280;2218;51.408;7.208;2023-04-02T03:12:44;99341.84;;;18.77;47.25
4410;BME280;2218;51.408;7.208;2023-04-02T03:15:22;99341.84;;;18.77;47.29
4410;BME280;2218;51.408;7.208;2023-04-02T03:17:58;99355.84;;;18.77;47.37
4410;BME280;2218;51.408;7.208;2023-04-02T03:20:36;99353.19;;;18.77;47.37
4410;BME280;2218;51.408;7.208;2023-04-02T03:23:16;99355.84;;;18.77;47.30
4410;BME280;2218;51.408;7.208;2023-04-02T03:25:51;99361.94;;;18.78;47.21
4410;BME280;2218;51.408;7.208;2023-04-02T03:28:27;99373.31;;;18.78;47.61
4410;BME280;2218;51.408;7.208;2023-04-02T03:31:02;99371.63;;;18.77;47.50
4410;BME280;2218;51.408;7.208;2023-04-02T03:33:38;99388.25;;;18.78;47.28
4410;BME280;2218;51.408;7.208;2023-04-02T03:36:18;99384.66;;;18.79;47.26
4410;BME280;2218;51.408;7.208;2023-04-02T03:38:53;99397.00;;;18.78;47.17
4410;BME280;2218;51.408;7.208;2023-04-02T03:41:29;99399.63;;;18.78;47.12
4410;BME280;2218;51.408;7.208;2023-04-02T03:44:03;99410.16;;;18.78;47.33
4410;BME280;2218;51.408;7.208;2023-04-02T03:46:38;99411.00;;;18.79;47.12
4410;BME280;2218;51.408;7.208;2023-04-02T03:49:15;99414.47;;;18.79;47.14
4410;BME280;2218;51.408;7.208;2023-04-02T03:51:53;99421.53;;;18.79;47.21
4410;BME280;2218;51.408;7.208;2023-04-02T03:54:22;99431.22;;;18.78;46.98
4410;BME280;2218;51.408;7.208;2023-04-02T03:56:52;99435.53;;;18.79;47.11
4410;BME280;2218;51.408;7.208;2023-04-02T03:59:34;99443.44;;;18.79;47.02
4410;BME280;2218;51.408;7.208;2023-04-02T04:02:18;99448.69;;;18.79;46.90
4410;BME280;2218;51.408;7.208;2023-04-02T04:04:54;99443.44;;;18.79;46.73
4410;BME280;2218;51.408;7.208;2023-04-02T04:07:31;99453.97;;;18.79;47.06
4410;BME280;2218;51.408;7.208;2023-04-02T04:10:03;99453.13;;;18.79;46.82
4410;BME280;2218;51.408;7.208;2023-04-02T04:12:35;99461.84;;;18.79;46.76
4410;BME280;2218;51.408;7.208;2023-04-02T04:15:17;99464.59;;;18.78;46.93
4410;BME280;2218;51.408;7.208;2023-04-02T04:17:54;99469.75;;;18.79;46.86
4410;BME280;2218;51.408;7.208;2023-04-02T04:20:39;99476.81;;;18.79;46.51
4410;BME280;2218;51.408;7.208;2023-04-02T04:23:19;99483.88;;;18.78;46.66
4410;BME280;2218;51.408;7.208;2023-04-02T04:25:58;99485.56;;;18.79;46.72
4410;BME280;2218;51.408;7.208;2023-04-02T04:28:35;99494.41;;;18.78;46.68
4410;BME280;2218;51.408;7.208;2023-04-02T04:31:17;99489.13;;;18.78;46.71
4410;BME280;2218;51.408;7.208;2023-04-02T04:33:53;99499.66;;;18.78;46.72
4410;BME280;2218;51.408;7.208;2023-04-02T04:36:34;99511.88;;;18.79;46.57
4410;BME280;2218;51.408;7.208;2023-04-02T04:39:13;99508.41;;;18.79;46.59
4410;BME280;2218;51.408;7.208;2023-04-02T04:41:47;99527.66;;;18.79;46.76
4410;BME280;2218;51.408;7.208;2023-04-02T04:44:21;99532.94;;;18.79;46.54
4410;BME280;2218;51.408;7.208;2023-04-02T04:46:59;99538.22;;;18.79;46.62
4410;BME280;2218;51.408;7.208;2023-04-02T04:49:34;99543.47;;;18.79;46.55
4410;BME280;2218;51.408;7.208;2023-04-02T04:52:13;99556.63;;;18.79;46.40
4410;BME280;2218;51.408;7.208;2023-04-02T04:54:45;99556.63;;;18.79;46.21
4410;BME280;2218;51.408;7.208;2023-04-02T04:57:28;99556.63;;;18.79;46.22
4410;BME280;2218;51.408;7.208;2023-04-02T05:00:05;99572.44;;;18.79;46.22
4410;BME280;2218;51.408;7.208;2023-04-02T05:02:46;99570.75;;;18.78;46.43
4410;BME280;2218;51.408;7.208;2023-04-02T05:05:19;99580.31;;;18.79;46.42
4410;BME280;2218;51.408;7.208;2023-04-02T05:07:57;99590.03;;;18.79;46.32
4410;BME280;2218;51.408;7.208;2023-04-02T05:10:33;99590.84;;;18.79;46.28
4410;BME280;2218;51.408;7.208;2023-04-02T05:13:12;99604.97;;;18.78;46.30
4410;BME280;2218;51.408;7.208;2023-04-02T05:15:49;99609.28;;;18.79;46.15
4410;BME280;2218;51.408;7.208;2023-04-02T05:18:26;99612.03;;;18.78;46.30
4410;BME280;2218;51.408;7.208;2023-04-02T05:20:59;99617.19;;;18.79;46.00
4410;BME280;2218;51.408;7.208;2023-04-02T05:23:36;99627.84;;;18.78;46.03
4410;BME280;2218;51.408;7.208;2023-04-02T05:26:09;99634.91;;;18.77;46.01
4410;BME280;2218;51.408;7.208;2023-04-02T05:28:44;99642.78;;;18.77;46.14
4410;BME280;2218;51.408;7.208;2023-04-02T05:31:19;99645.41;;;18.77;46.23
4410;BME280;2218;51.408;7.208;2023-04-02T05:33:48;99646.25;;;18.78;46.07
4410;BME280;2218;51.408;7.208;2023-04-02T05:36:20;99653.31;;;18.77;46.02
4410;BME280;2218;51.408;7.208;2023-04-02T05:38:54;99668.16;;;18.78;46.32
4410;BME280;2218;51.408;7.208;2023-04-02T05:41:33;99662.06;;;18.78;45.94
4410;BME280;2218;51.408;7.208;2023-04-02T05:44:09;99666.47;;;18.77;45.84
4410;BME280;2218;51.408;7.208;2023-04-02T05:46:47;99672.59;;;18.78;45.93
4410;BME280;2218;51.408;7.208;2023-04-02T05:49:22;99682.28;;;18.77;45.71
4410;BME280;2218;51.408;7.208;2023-04-02T05:51:57;99682.28;;;18.77;45.76
4410;BME280;2218;51.408;7.208;2023-04-02T05:54:32;99692.81;;;18.77;45.67
4410;BME280;2218;51.408;7.208;2023-04-02T05:57:08;99694.59;;;18.77;45.63
4410;BME280;2218;51.408;7.208;2023-04-02T05:59:42;99698.06;;;18.77;45.35
4410;BME280;2218;51.408;7.208;2023-04-02T06:02:21;99698.06;;;18.77;45.46
4410;BME280;2218;51.408;7.208;2023-04-02T06:04:55;99707.66;;;18.78;45.54
4410;BME280;2218;51.408;7.208;2023-04-02T06:07:33;99719.13;;;18.77;45.63
4410;BME280;2218;51.408;7.208;2023-04-02T06:10:15;99721.78;;;18.77;45.54
4410;BME280;2218;51.408;7.208;2023-04-02T06:12:50;99726.19;;;18.77;45.50
4410;BME280;2218;51.408;7.208;2023-04-02T06:15:22;99729.66;;;18.77;45.37
4410;BME280;2218;51.408;7.208;2023-04-02T06:18:03;99740.19;;;18.77;45.44
4410;BME280;2218;51.408;7.208;2023-04-02T06:20:33;99745.47;;;18.77;45.60
4410;BME280;2218;51.408;7.208;2023-04-02T06:23:05;99750.72;;;18.77;45.33
4410;BME280;2218;51.408;7.208;2023-04-02T06:25:41;99749.91;;;18.77;45.55
4410;BME280;2218;51.408;7.208;2023-04-02T06:28:16;99755.16;;;18.77;45.51
4410;BME280;2218;51.408;7.208;2023-04-02T06:30:54;99771.78;;;18.77;45.22
4410;BME280;2218;51.408;7.208;2023-04-02T06:33:24;99777.06;;;18.77;45.41
4410;BME280;2218;51.408;7.208;2023-04-02T06:35:53;99780.66;;;18.76;45.03
4410;BME280;2218;51.408;7.208;2023-04-02T06:38:30;99787.59;;;18.77;45.36
4410;BME280;2218;51.408;7.208;2023-04-02T06:41:04;99787.59;;;18.77;45.06
4410;BME280;2218;51.408;7.208;2023-04-02T06:43:44;99796.44;;;18.76;45.29
4410;BME280;2218;51.408;7.208;2023-04-02T06:46:27;99797.28;;;18.77;45.34
4410;BME280;2218;51.408;7.208;2023-04-02T06:49:16;99812.25;;;18.76;45.16
4410;BME280;2218;51.408;7.208;2023-04-02T06:51:48;99808.66;;;18.77;45.36
4410;BME280;2218;51.408;7.208;2023-04-02T06:54:18;99819.19;;;18.77;45.30
4410;BME280;2218;51.408;7.208;2023-04-02T06:56:53;99822.78;;;18.76;45.05
4410;BME280;2218;51.408;7.208;2023-04-02T06:59:34;99826.34;;;18.75;44.94
4410;BME280;2218;51.408;7.208;2023-04-02T07:02:20;99827.19;;;18.76;44.80
4410;BME280;2218;51.408;7.208;2023-04-02T07:04:48;99832.47;;;18.76;44.80
4410;BME280;2218;51.408;7.208;2023-04-02T07:07:17;99844.78;;;18.75;45.11
4410;BME280;2218;51.408;7.208;2023-04-02T07:09:46;99850.88;;;18.76;44.92
4410;BME280;2218;51.408;7.208;2023-04-02T07:12:22;99853.53;;;18.76;45.11
4410;BME280;2218;51.408;7.208;2023-04-02T07:14:50;99858.78;;;18.76;45.27
4410;BME280;2218;51.408;7.208;2023-04-02T07:17:17;99872.78;;;18.76;45.00
4410;BME280;2218;51.408;7.208;2023-04-02T07:19:45;99874.59;;;18.76;45.06
4410;BME280;2218;51.408;7.208;2023-04-02T07:22:16;99884.28;;;18.75;44.90
4410;BME280;2218;51.408;7.208;2023-04-02T07:24:46;99885.13;;;18.76;44.65
4410;BME280;2218;51.408;7.208;2023-04-02T07:27:15;99885.97;;;18.76;44.94
4410;BME280;2218;51.408;7.208;2023-04-02T07:29:41;99896.50;;;18.76;44.69
4410;BME280;2218;51.408;7.208;2023-04-02T07:32:09;99902.72;;;18.75;44.79
4410;BME280;2218;51.408;7.208;2023-04-02T07:34:37;99907.03;;;18.76;44.69
4410;BME280;2218;51.408;7.208;2023-04-02T07:37:04;99909.66;;;18.76;44.60
4410;BME280;2218;51.408;7.208;2023-04-02T07:39:32;99911.44;;;18.76;44.88
4410;BME280;2218;51.408;7.208;2023-04-02T07:42:00;99917.56;;;18.76;44.91
4410;BME280;2218;51.408;7.208;2023-04-02T07:44:29;99922.81;;;18.76;44.52
4410;BME280;2218;51.408;7.208;2023-04-02T07:46:56;99921.97;;;18.76;44.71
4410;BME280;2218;51.408;7.208;2023-04-02T07:49:23;99931.66;;;18.75;44.74
4410;BME280;2218;51.408;7.208;2023-04-02T07:51:51;99939.47;;;18.77;44.59
4410;BME280;2218;51.408;7.208;2023-04-02T07:54:18;99945.56;;;18.77;44.32
4410;BME280;2218;51.408;7.208;2023-04-02T07:56:45;99946.41;;;18.78;45.05
4410;BME280;2218;51.408;7.208;2023-04-02T07:59:12;99951.66;;;18.78;44.59
4410;BME280;2218;51.408;7.208;2023-04-02T08:01:40;99952.50;;;18.78;44.50
4410;BME280;2218;51.408;7.208;2023-04-02T08:04:16;99956.94;;;18.78;44.41
4410;BME280;2218;51.408;7.208;2023-04-02T08:06:44;99961.38;;;18.77;44.69
4410;BME280;2218;51.408;7.208;2023-04-02T08:09:11;99971.91;;;18.77;44.34
4410;BME280;2218;51.408;7.208;2023-04-02T08:11:39;99978.94;;;18.77;44.62
4410;BME280;2218;51.408;7.208;2023-04-02T08:14:06;99980.75;;;18.76;44.29
4410;BME280;2218;51.408;7.208;2023-04-02T08:16:47;99986.84;;;18.77;44.59
4410;BME280;2218;51.408;7.208;2023-04-02T08:19:15;99996.53;;;18.76;44.52
4410;BME280;2218;51.408;7.208;2023-04-02T08:21:42;99998.22;;;18.77;44.39
4410;BME280;2218;51.408;7.208;2023-04-02T08:24:10;100008.75;;;18.77;44.29
4410;BME280;2218;51.408;7.208;2023-04-02T08:26:37;100008.75;;;18.77;44.47
4410;BME280;2218;51.408;7.208;2023-04-02T08:29:04;100012.34;;;18.76;44.29
4410;BME280;2218;51.408;7.208;2023-04-02T08:31:31;100018.44;;;18.77;44.44
4410;BME280;2218;51.408;7.208;2023-04-02T08:33:59;100022.88;;;18.76;44.32
4410;BME280;2218;51.408;7.208;2023-04-02T08:36:32;100032.44;;;18.77;44.76
4410;BME280;2218;51.408;7.208;2023-04-02T08:38:59;100027.19;;;18.77;44.15
4410;BME280;2218;51.408;7.208;2023-04-02T08:41:27;100029.81;;;18.77;44.27
4410;BME280;2218;51.408;7.208;2023-04-02T08:44:33;100029.81;;;18.77;44.18
4410;BME280;2218;51.408;7.208;2023-04-02T08:47:06;100036.78;;;18.78;44.14
4410;BME280;2218;51.408;7.208;2023-04-02T08:49:41;100047.31;;;18.78;44.21
4410;BME280;2218;51.408;7.208;2023-04-02T08:52:21;100052.56;;;18.78;44.33
4410;BME280;2218;51.408;7.208;2023-04-02T08:54:49;100059.53;;;18.79;43.84
4410;BME280;2218;51.408;7.208;2023-04-02T08:57:30;100064.78;;;18.79;44.37
4410;BME280;2218;51.408;7.208;2023-04-02T09:00:07;100064.78;;;18.79;43.84
4410;BME280;2218;51.408;7.208;2023-04-02T09:02:49;100076.19;;;18.80;43.81
4410;BME280;2218;51.408;7.208;2023-04-02T09:05:25;100085.84;;;18.79;44.04
4410;BME280;2218;51.408;7.208;2023-04-02T09:07:58;100084.16;;;18.78;43.83
4410;BME280;2218;51.408;7.208;2023-04-02T09:10:37;100089.44;;;18.78;44.10
4410;BME280;2218;51.408;7.208;2023-04-02T09:13:16;100091.13;;;18.79;43.60
4410;BME280;2218;51.408;7.208;2023-04-02T09:15:46;100101.66;;;18.79;43.95
4410;BME280;2218;51.408;7.208;2023-04-02T09:18:16;100106.91;;;18.79;43.81
4410;BME280;2218;51.408;7.208;2023-04-02T09:20:45;100116.59;;;18.79;43.86
4410;BME280;2218;51.408;7.208;2023-04-02T09:23:18;100119.16;;;18.80;43.83
4410;BME280;2218;51.408;7.208;2023-04-02T09:25:49;100117.44;;;18.79;43.92
4410;BME280;2218;51.408;7.208;2023-04-02T09:28:17;100120.09;;;18.79;43.92
4410;BME280;2218;51.408;7.208;2023-04-02T09:30:59;100134.13;;;18.80;43.64
4410;BME280;2218;51.408;7.208;2023-04-02T09:33:42;100138.53;;;18.79;43.77
4410;BME280;2218;51.408;7.208;2023-04-02T09:36:34;100145.50;;;18.80;43.58
4410;BME280;2218;51.408;7.208;2023-04-02T09:39:04;100148.97;;;18.81;43.46
4410;BME280;2218;51.408;7.208;2023-04-02T09:41:34;100144.66;;;18.80;43.43
4410;BME280;2218;51.408;7.208;2023-04-02T09:44:17;100143.78;;;18.79;43.53
4410;BME280;2218;51.408;7.208;2023-04-02T09:46:54;100156.03;;;18.80;43.34
4410;BME280;2218;51.408;7.208;2023-04-02T09:49:27;100160.47;;;18.80;43.34
4410;BME280;2218;51.408;7.208;2023-04-02T09:52:25;100163.09;;;18.80;43.50
4410;BME280;2218;51.408;7.208;2023-04-02T09:55:19;100171.84;;;18.80;43.55
4410;BME280;2218;51.408;7.208;2023-04-02T09:57:49;100169.19;;;18.80;43.19
4410;BME280;2218;51.408;7.208;2023-04-02T10:00:20;100177.09;;;18.80;43.31
4410;BME280;2218;51.408;7.208;2023-04-02T10:03:02;100184.06;;;18.81;43.05
4410;BME280;2218;51.408;7.208;2023-04-02T10:05:32;100183.22;;;18.81;43.04
4410;BME280;2218;51.408;7.208;2023-04-02T10:08:18;100194.59;;;18.81;43.16
4410;BME280;2218;51.408;7.208;2023-04-02T10:10:49;100195.53;;;18.80;43.36
4410;BME280;2218;51.408;7.208;2023-04-02T10:13:24;100203.34;;;18.82;43.07
4410;BME280;2218;51.408;7.208;2023-04-02T10:15:58;100205.13;;;18.81;43.34
4410;BME280;2218;51.408;7.208;2023-04-02T10:18:39;100205.13;;;18.81;42.96
4410;BME280;2218;51.408;7.208;2023-04-02T10:21:11;100220.06;;;18.81;43.24
4410;BME280;2218;51.408;7.208;2023-04-02T10:23:42;100226.19;;;18.81;42.95
4410;BME280;2218;51.408;7.208;2023-04-02T10:26:42;100226.19;;;18.81;42.77
4410;BME280;2218;51.408;7.208;2023-04-02T10:29:36;100241.03;;;18.82;42.87
4410;BME280;2218;51.408;7.208;2023-04-02T10:32:14;100242.00;;;18.81;43.11
4410;BME280;2218;51.408;7.208;2023-04-02T10:34:51;100242.84;;;18.82;42.76
4410;BME280;2218;51.408;7.208;2023-04-02T10:38:08;100249.88;;;18.81;42.80
4410;BME280;2218;51.408;7.208;2023-04-02T10:40:45;100258.53;;;18.83;42.75
4410;BME280;2218;51.408;7.208;2023-04-02T10:43:38;100255.16;;;18.81;42.75
4410;BME280;2218;51.408;7.208;2023-04-02T10:46:13;100266.44;;;18.83;42.67
4410;BME280;2218;51.408;7.208;2023-04-02T10:48:55;100264.75;;;18.82;42.83
4410;BME280;2218;51.408;7.208;2023-04-02T10:51:34;100265.59;;;18.83;42.57
4410;BME280;2218;51.408;7.208;2023-04-02T10:54:18;100271.69;;;18.83;42.78
4410;BME280;2218;51.408;7.208;2023-04-02T10:56:51;100266.44;;;18.83;42.33
4410;BME280;2218;51.408;7.208;2023-04-02T10:59:25;100269.06;;;18.83;42.60
4410;BME280;2218;51.408;7.208;2023-04-02T11:01:57;100273.38;;;18.84;42.42
4410;BME280;2218;51.408;7.208;2023-04-02T11:04:31;100278.66;;;18.84;42.59
4410;BME280;2218;51.408;7.208;2023-04-02T11:07:06;100283.00;;;18.85;42.72
4410;BME280;2218;51.408;7.208;2023-04-02T11:09:41;100284.69;;;18.87;42.48
4410;BME280;2218;51.408;7.208;2023-04-02T11:12:20;100284.69;;;18.87;42.50
4410;BME280;2218;51.408;7.208;2023-04-02T11:14:50;100285.53;;;18.87;42.30
4410;BME280;2218;51.408;7.208;2023-04-02T11:17:18;100294.28;;;18.88;42.39
4410;BME280;2218;51.408;7.208;2023-04-02T11:19:46;100301.25;;;18.89;42.45
4410;BME280;2218;51.408;7.208;2023-04-02T11:22:15;100306.50;;;18.89;42.33
4410;BME280;2218;51.408;7.208;2023-04-02T11:24:45;100311.78;;;18.89;42.46
4410;BME280;2218;51.408;7.208;2023-04-02T11:27:25;100312.63;;;18.89;42.47
4410;BME280;2218;51.408;7.208;2023-04-02T11:30:02;100328.38;;;18.91;42.24
4410;BME280;2218;51.408;7.208;2023-04-02T11:32:35;100331.00;;;18.91;42.50
4410;BME280;2218;51.408;7.208;2023-04-02T11:35:37;100328.44;;;18.89;42.38
4410;BME280;2218;51.408;7.208;2023-04-02T11:38:47;100337.22;;;18.90;42.28
4410;BME280;2218;51.408;7.208;2023-04-02T11:42:00;100338.97;;;18.89;42.49
4410;BME280;2218;51.408;7.208;2023-04-02T11:44:29;100343.38;;;18.89;42.24
4410;BME280;2218;51.408;7.208;2023-04-02T11:47:17;100345.09;;;18.90;42.10
4410;BME280;2218;51.408;7.208;2023-04-02T11:50:01;100356.56;;;18.89;42.27
4410;BME280;2218;51.408;7.208;2023-04-02T11:52:49;100353.91;;;18.89;42.33
4410;BME280;2218;51.408;7.208;2023-04-02T11:55:25;100359.19;;;18.89;42.12
4410;BME280;2218;51.408;7.208;2023-04-02T11:58:31;100364.47;;;18.89;42.30
4410;BME280;2218;51.408;7.208;2023-04-02T12:01:32;100372.34;;;18.89;42.09
4410;BME280;2218;51.408;7.208;2023-04-02T12:05:02;100380.25;;;18.89;42.18
4410;BME280;2218;51.408;7.208;2023-04-02T12:07:54;100377.63;;;18.89;42.12
4410;BME280;2218;51.408;7.208;2023-04-02T12:10:33;100388.16;;;18.89;42.06
4410;BME280;2218;51.408;7.208;2023-04-02T12:13:18;100382.91;;;18.89;41.93
4410;BME280;2218;51.408;7.208;2023-04-02T12:15:47;100389.00;;;18.89;42.20
4410;BME280;2218;51.408;7.208;2023-04-02T12:18:21;100389.94;;;18.88;41.99
4410;BME280;2218;51.408;7.208;2023-04-02T12:20:51;100392.59;;;18.88;41.85
4410;BME280;2218;51.408;7.208;2023-04-02T12:23:23;100397.00;;;18.88;41.89
4410;BME280;2218;51.408;7.208;2023-04-02T12:25:57;100397.84;;;18.88;42.08
4410;BME280;2218;51.408;7.208;2023-04-02T12:28:28;100400.47;;;18.88;42.01
4410;BME280;2218;51.408;7.208;2023-04-02T12:31:11;100406.59;;;18.89;42.01
4410;BME280;2218;51.408;7.208;2023-04-02T12:33:41;100406.59;;;18.89;41.86
4410;BME280;2218;51.408;7.208;2023-04-02T12:36:18;100404.91;;;18.88;41.83
4410;BME280;2218;51.408;7.208;2023-04-02T12:38:49;100408.38;;;18.88;41.79
4410;BME280;2218;51.408;7.208;2023-04-02T12:41:23;100410.16;;;18.88;41.81
4410;BME280;2218;51.408;7.208;2023-04-02T12:44:02;100410.16;;;18.88;41.82
4410;BME280;2218;51.408;7.208;2023-04-02T12:46:33;100418.06;;;18.88;41.66
4410;BME280;2218;51.408;7.208;2023-04-02T12:49:05;100425.97;;;18.88;41.80
4410;BME280;2218;51.408;7.208;2023-04-02T12:51:35;100426.91;;;18.87;41.94
4410;BME280;2218;51.408;7.208;2023-04-02T12:54:03;100434.81;;;18.87;41.95
4410;BME280;2218;51.408;7.208;2023-04-02T12:56:30;100439.16;;;18.88;41.57
4410;BME280;2218;51.408;7.208;2023-04-02T12:58:58;100436.50;;;18.88;41.72
4410;BME280;2218;51.408;7.208;2023-04-02T13:01:28;100436.50;;;18.88;41.77
4410;BME280;2218;51.408;7.208;2023-04-02T13:04:05;100440.09;;;18.87;41.65
4410;BME280;2218;51.408;7.208;2023-04-02T13:06:34;100440.94;;;18.87;41.86
4410;BME280;2218;51.408;7.208;2023-04-02T13:09:04;100434.81;;;18.87;41.50
4410;BME280;2218;51.408;7.208;2023-04-02T13:11:37;100440.09;;;18.87;41.55
4410;BME280;2218;51.408;7.208;2023-04-02T13:14:07;100437.44;;;18.87;41.77
4410;BME280;2218;51.408;7.208;2023-04-02T13:16:40;100439.25;;;18.86;41.70
4410;BME280;2218;51.408;7.208;2023-04-02T13:19:23;100445.34;;;18.87;41.42
4410;BME280;2218;51.408;7.208;2023-04-02T13:21:52;100445.34;;;18.87;41.74
4410;BME280;2218;51.408;7.208;2023-04-02T13:24:22;100461.16;;;18.87;41.51
4410;BME280;2218;51.408;7.208;2023-04-02T13:26:53;100456.72;;;18.87;41.48
4410;BME280;2218;51.408;7.208;2023-04-02T13:29:26;100460.22;;;18.88;41.35
4410;BME280;2218;51.408;7.208;2023-04-02T13:31:57;100462.84;;;18.88;41.58
4410;BME280;2218;51.408;7.208;2023-04-02T13:34:26;100454.84;;;18.89;41.47
4410;BME280;2218;51.408;7.208;2023-04-02T13:36:54;100461.91;;;18.89;41.35
4410;BME280;2218;51.408;7.208;2023-04-02T13:39:22;100453.16;;;18.88;41.56
4410;BME280;2218;51.408;7.208;2023-04-02T13:41:51;100452.22;;;18.89;41.06
4410;BME280;2218;51.408;7.208;2023-04-02T13:44:23;100454.84;;;18.89;41.12
4410;BME280;2218;51.408;7.208;2023-04-02T13:46:52;100456.56;;;18.90;41.48
4410;BME280;2218;51.408;7.208;2023-04-02T13:49:19;100466.25;;;18.90;41.35
4410;BME280;2218;51.408;7.208;2023-04-02T13:51:50;100460.81;;;18.93;41.03
4410;BME280;2218;51.408;7.208;2023-04-02T13:54:24;100456.47;;;18.92;41.07
4410;BME280;2218;51.408;7.208;2023-04-02T13:56:55;100453.84;;;18.92;41.04
4410;BME280;2218;51.408;7.208;2023-04-02T13:59:22;100462.69;;;18.91;41.26
4410;BME280;2218;51.408;7.208;2023-04-02T14:01:53;100468.81;;;18.91;41.09
4410;BME280;2218;51.408;7.208;2023-04-02T14:04:26;100469.66;;;18.92;41.09